Time;durP1;ratioP1;P1;durP2;ratioP2;P2;SDS_P1;SDS_P2;PMS_P1;PMS_P2;Temp;Humidity;BMP_temperature;BMP_pressure;BME280_temperature;BME280_humidity;BME280_pressure;Samples;Min_cycle;Max_cycle;Signal;HPM_P1;HPM_P2
2023/07/10 00:02:21;;;;;;;6.63;4.77;;;14.50;99.90;13.80;100956;;;;573219;245;24060;-79
2023/07/10 00:04:49;;;;;;;6.30;5.60;;;14.50;99.90;13.80;100960;;;;574599;248;24126;-80
2023/07/10 00:07:20;;;;;;;7.27;5.80;;;14.50;99.90;13.80;100958;;;;584018;245;24089;-81
2023/07/10 00:09:45;;;;;;;6.17;5.57;;;14.40;99.90;13.80;100961;;;;553901;254;24122;-81
2023/07/10 00:12:13;;;;;;;8.67;5.70;;;14.50;99.90;13.80;100956;;;;573514;245;24091;-81
2023/07/10 00:14:42;;;;;;;6.10;5.03;;;14.50;99.90;13.80;100954;;;;575594;245;24096;-80
2023/07/10 00:17:14;;;;;;;6.43;5.83;;;14.50;99.90;13.80;100965;;;;573612;245;24097;-80
2023/07/10 00:19:38;;;;;;;7.17;5.90;;;14.40;99.90;13.80;100967;;;;576127;245;24069;-80
2023/07/10 00:22:06;;;;;;;7.43;6.63;;;14.50;99.90;13.80;100960;;;;559292;248;37072;-80
2023/07/10 00:24:37;;;;;;;9.23;7.07;;;14.50;99.90;13.80;100958;;;;571234;245;46164;-80
2023/07/10 00:27:02;;;;;;;8.13;5.20;;;14.50;99.90;13.80;100957;;;;553940;255;24166;-81
2023/07/10 00:29:31;;;;;;;6.20;5.30;;;14.50;99.90;13.80;100965;;;;575895;245;24084;-82
2023/07/10 00:32:01;;;;;;;8.37;5.43;;;14.50;99.90;13.80;100963;;;;587029;245;24074;-81
2023/07/10 00:34:26;;;;;;;7.40;5.83;;;14.50;99.90;13.80;100970;;;;553443;255;24122;-83
2023/07/10 00:36:54;;;;;;;8.00;5.93;;;14.40;99.90;13.80;100966;;;;563176;251;24124;-82
2023/07/10 00:39:28;;;;;;;7.97;5.83;;;14.50;99.90;13.70;100961;;;;565825;250;24113;-80
2023/07/10 00:42:03;;;;;;;8.83;6.13;;;14.40;99.90;13.70;100954;;;;563777;248;24101;-83
2023/07/10 00:44:33;;;;;;;7.93;5.23;;;14.40;99.90;13.70;100952;;;;566051;250;24085;-80
2023/07/10 00:47:07;;;;;;;8.37;5.70;;;14.40;99.90;13.60;100947;;;;563400;250;24222;-81
2023/07/10 00:49:38;;;;;;;8.53;5.90;;;14.30;99.90;13.50;100951;;;;571911;245;24070;-80
2023/07/10 00:52:27;;;;;;;8.03;6.17;;;14.20;99.90;13.50;100946;;;;575180;245;24058;-80
2023/07/10 00:54:55;;;;;;;7.07;6.37;;;14.20;99.90;13.50;100949;;;;575223;245;24067;-80
2023/07/10 00:57:33;;;;;;;5.57;5.07;;;14.20;99.90;13.40;100931;;;;555566;255;24186;-80
2023/07/10 01:00:03;;;;;;;8.90;5.80;;;14.10;99.90;13.40;100945;;;;573114;245;24064;-80
2023/07/10 01:02:30;;;;;;;9.30;6.07;;;14.10;99.90;13.40;100948;;;;553981;251;24151;-79
2023/07/10 01:04:56;;;;;;;6.50;5.30;;;14.10;99.90;13.40;100955;;;;576055;245;24068;-79
2023/07/10 01:07:27;;;;;;;7.23;5.10;;;14.00;99.90;13.40;100955;;;;575573;245;24161;-84
2023/07/10 01:10:05;;;;;;;10.27;6.27;;;14.00;99.90;13.40;100951;;;;575114;245;24069;-83
2023/07/10 01:12:33;;;;;;;7.93;5.90;;;14.10;99.90;13.40;100960;;;;555683;255;24141;-79
2023/07/10 01:15:01;;;;;;;6.67;5.70;;;14.20;99.90;13.40;100963;;;;575311;245;24153;-83
2023/07/10 01:17:29;;;;;;;10.20;6.33;;;14.00;99.90;13.30;100954;;;;574414;248;24073;-79
2023/07/10 01:19:59;;;;;;;7.57;6.07;;;14.00;99.90;13.30;100967;;;;575566;245;24068;-78
2023/07/10 01:22:27;;;;;;;7.77;6.27;;;14.00;99.90;13.30;100963;;;;576716;245;24057;-80
2023/07/10 01:24:58;;;;;;;8.80;6.90;;;14.00;99.90;13.30;100971;;;;576597;244;24096;-79
2023/07/10 01:27:23;;;;;;;9.83;6.50;;;13.90;99.90;13.30;100970;;;;584880;240;24131;-79
2023/07/10 01:29:59;;;;;;;7.70;6.93;;;14.00;99.90;13.30;100977;;;;576298;245;24132;-80
2023/07/10 01:32:27;;;;;;;9.43;7.27;;;14.00;99.90;13.40;100975;;;;575777;245;24113;-80
2023/07/10 01:34:55;;;;;;;8.77;7.17;;;14.00;99.90;13.40;100973;;;;574433;250;24132;-79
2023/07/10 01:37:23;;;;;;;12.23;7.63;;;14.00;99.90;13.40;100973;;;;556127;255;24123;-78
2023/07/10 01:39:52;;;;;;;10.63;8.40;;;14.00;99.90;13.40;100979;;;;572737;245;24088;-80
2023/07/10 01:42:23;;;;;;;9.77;7.27;;;14.00;99.90;13.40;100968;;;;575383;245;24065;-79
2023/07/10 01:44:47;;;;;;;11.47;8.00;;;14.00;99.90;13.30;100961;;;;575085;245;24098;-78
2023/07/10 01:47:15;;;;;;;10.97;7.50;;;14.00;99.90;13.30;100956;;;;575654;245;24101;-80
2023/07/10 01:49:46;;;;;;;7.97;6.93;;;13.90;99.90;13.20;100942;;;;575799;245;24145;-81
2023/07/10 01:52:14;;;;;;;10.83;7.60;;;13.90;99.90;13.20;100934;;;;569812;245;24063;-81
2023/07/10 01:54:45;;;;;;;7.87;6.93;;;13.90;99.90;13.20;100927;;;;575809;245;24058;-79
2023/07/10 01:57:13;;;;;;;9.37;8.03;;;13.90;99.90;13.10;100928;;;;565833;250;24111;-81
2023/07/10 01:59:38;;;;;;;10.83;8.10;;;13.80;99.90;13.10;100928;;;;584181;245;24154;-81
2023/07/10 02:02:10;;;;;;;8.90;8.00;;;13.80;99.90;13.10;100927;;;;575564;245;24071;-82
2023/07/10 02:04:34;;;;;;;9.50;7.90;;;13.70;99.90;13.00;100937;;;;577502;245;24115;-81
2023/07/10 02:07:05;;;;;;;9.57;7.80;;;13.70;99.90;13.00;100927;;;;574154;248;24099;-81
2023/07/10 02:09:33;;;;;;;14.23;8.80;;;13.70;99.90;13.00;100926;;;;575086;245;24079;-82
2023/07/10 02:11:58;;;;;;;10.57;8.43;;;13.70;99.90;13.10;100930;;;;577292;245;24139;-81
2023/07/10 02:14:26;;;;;;;10.30;8.20;;;13.70;99.90;13.10;100919;;;;585775;245;24060;-81
2023/07/10 02:16:53;;;;;;;12.07;9.30;;;13.70;99.90;13.10;100920;;;;575173;245;24112;-80
2023/07/10 02:19:21;;;;;;;12.27;9.77;;;13.70;99.90;13.10;100917;;;;563980;244;24149;-82
2023/07/10 02:21:49;;;;;;;15.87;12.60;;;13.80;99.90;13.10;100927;;;;570806;245;36621;-83
2023/07/10 02:24:17;;;;;;;18.87;14.13;;;13.80;99.90;13.20;100932;;;;570820;245;36628;-82
2023/07/10 02:26:45;;;;;;;11.33;8.53;;;13.80;99.90;13.10;100934;;;;572760;245;24100;-83
2023/07/10 02:29:13;;;;;;;10.63;8.57;;;13.80;99.90;13.10;100928;;;;572800;245;24096;-81
2023/07/10 02:31:41;;;;;;;17.03;9.60;;;13.70;99.90;13.10;100930;;;;584582;244;24148;-78
2023/07/10 02:34:09;;;;;;;20.97;9.40;;;13.70;99.90;13.00;100932;;;;564988;248;24117;-82
2023/07/10 02:36:37;;;;;;;12.70;10.27;;;13.70;99.90;13.00;100932;;;;576353;245;24126;-83
2023/07/10 02:39:05;;;;;;;18.13;13.13;;;13.70;99.90;13.00;100944;;;;568232;245;37150;-83
2023/07/10 02:41:33;;;;;;;16.33;14.50;;;13.70;99.90;13.10;100945;;;;568834;245;35293;-84
2023/07/10 02:44:03;;;;;;;12.30;10.87;;;13.70;99.90;13.10;100940;;;;572972;245;24092;-82
2023/07/10 02:46:29;;;;;;;12.67;10.60;;;13.70;99.90;13.20;100937;;;;575588;245;24081;-81
2023/07/10 02:48:59;;;;;;;15.87;10.90;;;13.80;99.90;13.20;100936;;;;575535;245;24092;-81
2023/07/10 02:51:25;;;;;;;17.40;11.10;;;13.90;99.90;13.30;100932;;;;555964;255;24135;-84
2023/07/10 02:53:54;;;;;;;14.07;11.10;;;14.00;99.90;13.40;100940;;;;584910;245;24146;-79
2023/07/10 02:56:22;;;;;;;16.00;11.57;;;13.90;99.90;13.50;100950;;;;573048;241;24054;-81
2023/07/10 02:58:52;;;;;;;20.73;12.60;;;14.10;99.90;13.60;100947;;;;572784;245;24130;-80
2023/07/10 03:01:26;;;;;;;20.30;12.57;;;14.20;99.90;13.70;100955;;;;572688;245;24086;-78
2023/07/10 03:03:48;;;;;;;16.67;11.87;;;14.30;99.90;13.80;100952;;;;583987;245;24071;-77
2023/07/10 03:06:19;;;;;;;19.03;13.17;;;14.30;99.90;13.90;100955;;;;575193;244;24103;-77
2023/07/10 03:08:44;;;;;;;19.30;12.87;;;14.40;99.90;13.90;100962;;;;563854;253;24182;-80
2023/07/10 03:11:12;;;;;;;17.70;12.53;;;14.50;99.90;14.00;100957;;;;572756;245;24067;-79
2023/07/10 03:13:40;;;;;;;15.83;12.67;;;14.60;99.90;14.10;100953;;;;555506;255;24158;-81
2023/07/10 03:16:08;;;;;;;20.53;12.80;;;14.70;99.90;14.20;100956;;;;572788;245;24218;-78
2023/07/10 03:18:39;;;;;;;24.10;14.70;;;14.80;99.90;14.30;100959;;;;576037;245;24122;-79
2023/07/10 03:21:04;;;;;;;28.07;14.93;;;15.00;99.90;14.50;100966;;;;564016;248;24149;-80
2023/07/10 03:23:33;;;;;;;23.03;15.00;;;15.10;99.90;14.60;100962;;;;573347;245;24063;-81
2023/07/10 03:26:02;;;;;;;22.00;15.43;;;15.50;99.90;15.00;100958;;;;575214;245;24134;-84
2023/07/10 03:28:31;;;;;;;41.95;26.52;;;16.10;99.90;15.70;100968;;;;572723;244;35280;-81
2023/07/10 03:30:59;;;;;;;34.03;22.27;;;16.80;99.90;16.50;100978;;;;576430;245;24068;-81
2023/07/10 03:33:27;;;;;;;24.40;18.67;;;16.80;99.90;17.20;100972;;;;585627;245;24131;-79
2023/07/10 03:35:58;;;;;;;25.77;18.37;;;17.60;99.90;17.90;100976;;;;574060;245;24077;-80
2023/07/10 03:38:26;;;;;;;18.33;13.37;;;18.30;99.90;18.70;100981;;;;577151;245;24210;-81
2023/07/10 03:40:54;;;;;;;17.50;11.57;;;19.10;99.90;19.40;100975;;;;577273;245;24095;-81
2023/07/10 03:43:23;;;;;;;17.13;10.60;;;20.60;99.90;20.10;100985;;;;577081;245;24079;-79
2023/07/10 03:45:54;;;;;;;15.17;9.97;;;21.40;99.90;20.90;100992;;;;578571;244;24082;-79
2023/07/10 03:48:23;;;;;;;12.57;8.90;;;21.30;99.90;21.60;100994;;;;586864;244;25136;-80
2023/07/10 03:50:47;;;;;;;9.73;8.73;;;22.10;99.90;22.30;100993;;;;577231;244;24125;-81
2023/07/10 03:53:15;;;;;;;11.73;8.03;;;22.80;99.90;23.00;100985;;;;587106;244;24064;-79
2023/07/10 03:55:52;;;;;;;9.37;8.27;;;23.50;99.90;23.50;100984;;;;575078;244;23076;-82
2023/07/10 03:58:20;;;;;;;8.23;7.43;;;24.00;99.90;23.90;100978;;;;577967;245;23119;-81
2023/07/10 04:00:48;;;;;;;9.77;8.77;;;24.50;99.90;24.20;100980;;;;577754;245;24105;-82
2023/07/10 04:03:20;;;;;;;10.50;8.23;;;25.10;99.90;24.50;100984;;;;577869;245;23108;-83
2023/07/10 04:05:49;;;;;;;9.60;8.37;;;25.00;99.90;24.70;100984;;;;575715;245;24065;-81
2023/07/10 04:08:12;;;;;;;12.80;8.67;;;25.30;99.90;25.30;100986;;;;574351;245;23078;-83
2023/07/10 04:10:40;;;;;;;9.30;8.40;;;25.80;99.90;25.70;100986;;;;575485;245;23075;-82
2023/07/10 04:13:08;;;;;;;8.53;7.73;;;26.30;99.90;25.80;100987;;;;572756;245;23130;-80
2023/07/10 04:15:36;;;;;;;9.30;8.50;;;26.40;99.90;25.60;100980;;;;572733;245;23071;-81
2023/07/10 04:18:04;;;;;;;8.45;7.75;;;26.30;99.90;25.80;100989;;;;572665;245;24065;-80
2023/07/10 04:20:32;;;;;;;8.87;7.50;;;26.40;99.90;25.90;100981;;;;572433;245;23084;-80
2023/07/10 04:23:00;;;;;;;8.57;7.47;;;26.60;99.90;25.90;100972;;;;572785;245;24087;-81
2023/07/10 04:25:31;;;;;;;8.75;7.85;;;26.60;99.90;26.00;100984;;;;572862;245;23124;-80
2023/07/10 04:27:56;;;;;;;9.63;6.93;;;26.80;99.90;26.10;100985;;;;575296;245;23076;-80
2023/07/10 04:30:25;;;;;;;9.63;7.03;;;27.30;99.90;26.80;100988;;;;572938;245;23088;-80
2023/07/10 04:32:54;;;;;;;23.47;7.33;;;27.70;99.90;27.10;100995;;;;572970;245;23072;-78
2023/07/10 04:35:22;;;;;;;14.90;7.18;;;28.10;99.90;27.30;101004;;;;572877;245;23078;-80
2023/07/10 04:37:50;;;;;;;12.77;6.23;;;28.00;99.90;27.90;101006;;;;572788;245;23129;-81
2023/07/10 04:40:18;;;;;;;9.23;5.53;;;28.60;99.90;28.70;101013;;;;574228;248;23170;-79
2023/07/10 04:42:49;;;;;;;9.10;5.70;;;29.30;99.90;29.20;101020;;;;575272;245;23075;-80
2023/07/10 04:45:14;;;;;;;8.75;5.55;;;30.00;99.90;29.80;101012;;;;563286;248;23118;-81
2023/07/10 04:47:42;;;;;;;6.55;5.03;;;30.60;99.90;30.30;101020;;;;575301;245;23087;-82
2023/07/10 04:50:10;;;;;;;5.70;4.65;;;31.10;97.50;30.40;101024;;;;563415;247;23113;-81
2023/07/10 04:52:38;;;;;;;5.80;5.30;;;31.20;96.00;30.40;101028;;;;575659;240;23075;-84
2023/07/10 04:55:10;;;;;;;5.53;5.12;;;31.30;95.30;30.30;101028;;;;572797;245;23082;-83
2023/07/10 04:57:34;;;;;;;6.68;5.07;;;31.20;94.10;30.00;101028;;;;567074;248;23143;-80
2023/07/10 05:00:06;;;;;;;5.30;4.90;;;31.00;94.00;30.10;101026;;;;576214;245;24081;-82
2023/07/10 05:02:31;;;;;;;6.30;5.45;;;31.40;93.50;30.60;101032;;;;584616;245;23099;-80
2023/07/10 05:05:00;;;;;;;5.78;5.28;;;32.40;91.70;31.70;101028;;;;575961;245;23136;-80
2023/07/10 05:07:28;;;;;;;4.62;4.20;;;32.30;91.60;32.70;101018;;;;572864;245;23109;-81
2023/07/10 05:09:56;;;;;;;4.55;4.15;;;33.40;90.30;33.20;101025;;;;572958;245;23091;-80
2023/07/10 05:12:23;;;;;;;5.12;4.72;;;34.10;85.10;33.20;101023;;;;574511;248;23113;-83
2023/07/10 05:14:51;;;;;;;5.47;4.68;;;34.20;81.60;33.90;101024;;;;575614;245;24141;-85
2023/07/10 05:17:19;;;;;;;4.65;4.35;;;34.80;78.50;34.50;101024;;;;563441;247;23197;-84
2023/07/10 05:19:50;;;;;;;4.55;4.15;;;35.50;75.30;35.10;101029;;;;575661;245;23100;-85
2023/07/10 05:22:18;;;;;;;4.07;3.80;;;36.00;72.20;35.20;101022;;;;574090;249;23120;-85
2023/07/10 05:24:43;;;;;;;4.10;3.70;;;36.20;70.30;35.50;101034;;;;584420;245;23106;-85
2023/07/10 05:27:11;;;;;;;4.72;4.32;;;36.40;68.70;36.00;101029;;;;573003;245;23090;-84
2023/07/10 05:29:40;;;;;;;8.10;4.25;;;37.20;63.40;36.20;101035;;;;573026;245;23086;-81
2023/07/10 05:32:08;;;;;;;4.43;3.95;;;37.00;62.50;36.10;101031;;;;572896;245;23072;-80
2023/07/10 05:34:36;;;;;;;4.00;3.70;;;37.00;62.40;36.00;101030;;;;572841;245;23085;-84
2023/07/10 05:37:08;;;;;;;4.35;3.80;;;37.00;62.80;36.20;101032;;;;572845;245;23067;-83
2023/07/10 05:39:32;;;;;;;4.55;3.70;;;37.00;61.60;36.90;101031;;;;555329;255;24174;-81
2023/07/10 05:42:00;;;;;;;3.95;3.65;;;37.60;60.60;37.60;101038;;;;574146;248;23152;-81
2023/07/10 05:44:28;;;;;;;6.57;3.55;;;38.30;59.40;38.00;101032;;;;575412;245;23074;-81
2023/07/10 05:46:56;;;;;;;5.00;3.85;;;38.70;57.90;38.20;101035;;;;572359;245;23095;-79
2023/07/10 05:49:24;;;;;;;7.22;4.10;;;39.00;57.00;38.60;101040;;;;573006;245;23066;-81
2023/07/10 05:51:52;;;;;;;5.22;3.87;;;39.90;54.90;39.30;101037;;;;585745;245;23089;-80
2023/07/10 05:54:20;;;;;;;7.85;3.83;;;39.80;54.80;39.60;101040;;;;576843;245;23153;-80
2023/07/10 05:56:48;;;;;;;4.30;3.90;;;40.20;53.80;39.70;101032;;;;577097;245;23088;-82
2023/07/10 05:59:16;;;;;;;4.97;3.90;;;40.40;53.40;40.10;101035;;;;573139;245;23095;-81
2023/07/10 06:01:44;;;;;;;4.32;3.92;;;40.70;52.60;39.70;101045;;;;586904;245;23086;-81
2023/07/10 06:04:12;;;;;;;6.70;3.65;;;40.50;52.60;40.10;101042;;;;577390;245;23055;-82
2023/07/10 06:06:40;;;;;;;4.18;3.70;;;40.60;51.80;39.80;101039;;;;574212;245;23087;-81
2023/07/10 06:09:08;;;;;;;5.85;3.37;;;40.60;51.60;39.50;101041;;;;567454;250;23107;-82
2023/07/10 06:11:36;;;;;;;5.20;4.22;;;40.20;51.50;39.80;101049;;;;576494;245;24110;-85
2023/07/10 06:14:04;;;;;;;5.32;4.10;;;40.40;51.20;39.60;101035;;;;575487;248;23108;-81
2023/07/10 06:16:32;;;;;;;3.80;3.40;;;40.40;51.50;39.80;101034;;;;576860;245;23105;-80
2023/07/10 06:19:00;;;;;;;3.47;3.20;;;40.40;51.50;39.90;101035;;;;564726;248;23142;-85
2023/07/10 06:21:32;;;;;;;4.25;3.20;;;40.50;51.30;40.10;101040;;;;576203;245;23067;-87
2023/07/10 06:23:56;;;;;;;4.72;3.42;;;40.60;50.50;40.70;101032;;;;566119;249;23093;-87
2023/07/10 06:26:24;;;;;;;10.35;4.65;;;40.90;50.10;41.10;101028;;;;576472;245;23079;-86
2023/07/10 06:28:52;;;;;;;5.35;4.45;;;41.40;49.40;41.60;101030;;;;576472;245;23115;-86
2023/07/10 06:31:20;;;;;;;8.02;3.75;;;42.00;48.90;42.20;101035;;;;564843;247;23106;-86
2023/07/10 06:33:48;;;;;;;7.57;3.30;;;42.70;48.20;42.80;101033;;;;577193;245;23062;-83
2023/07/10 06:36:19;;;;;;;2.90;2.67;;;43.20;46.70;42.80;101028;;;;574274;245;23139;-86
2023/07/10 06:38:44;;;;;;;5.30;2.72;;;43.40;45.50;43.30;101024;;;;576761;245;23084;-85
2023/07/10 06:41:14;;;;;;;3.95;2.30;;;43.80;45.30;44.20;101021;;;;573935;245;23108;-83
2023/07/10 06:43:39;;;;;;;5.28;2.80;;;44.50;44.20;44.60;101030;;;;573069;245;24133;-83
2023/07/10 06:46:07;;;;;;;5.43;2.30;;;45.00;43.10;44.40;101025;;;;573340;245;23089;-82
2023/07/10 06:48:39;;;;;;;6.72;2.72;;;45.00;43.00;44.50;101032;;;;573409;245;23071;-86
2023/07/10 06:51:06;;;;;;;3.67;2.58;;;45.00;43.00;44.80;101033;;;;573574;245;23090;-83
2023/07/10 06:53:34;;;;;;;6.22;2.72;;;45.30;42.40;44.70;101037;;;;573585;245;23208;-83
2023/07/10 06:56:02;;;;;;;5.20;2.17;;;45.30;42.40;44.90;101032;;;;574048;245;23105;-83
2023/07/10 06:58:30;;;;;;;2.20;2.08;;;45.40;42.10;45.00;101030;;;;578284;245;23180;-86
2023/07/10 07:01:01;;;;;;;4.00;2.40;;;45.80;41.10;45.50;101032;;;;554273;252;23127;-86
2023/07/10 07:03:30;;;;;;;4.15;2.28;;;45.90;41.10;45.60;101035;;;;584621;245;24098;-86
2023/07/10 07:05:54;;;;;;;5.97;2.70;;;46.10;39.50;45.00;101034;;;;584515;245;24127;-84
2023/07/10 07:08:22;;;;;;;7.78;2.25;;;45.70;39.60;44.00;101028;;;;573934;245;23079;-86
2023/07/10 07:10:50;;;;;;;4.32;2.08;;;45.00;39.20;43.70;101029;;;;577657;245;24142;-83
2023/07/10 07:13:20;;;;;;;1.65;1.62;;;44.50;38.80;43.70;101023;;;;577572;245;23073;-83
2023/07/10 07:15:50;;;;;;;2.10;1.50;;;44.30;39.30;44.20;101025;;;;577590;244;23083;-83
2023/07/10 07:18:21;;;;;;;1.73;1.62;;;44.60;39.00;44.50;101024;;;;575273;245;23104;-81
2023/07/10 07:20:47;;;;;;;3.92;1.83;;;45.00;37.00;44.70;101024;;;;576758;245;23069;-81
2023/07/10 07:23:19;;;;;;;1.95;1.70;;;45.00;37.00;44.60;101026;;;;585284;245;23133;-82
2023/07/10 07:25:47;;;;;;;3.03;1.80;;;45.00;37.90;45.00;101025;;;;584998;240;23110;-83
2023/07/10 07:28:12;;;;;;;5.65;1.52;;;45.20;38.20;45.40;101016;;;;573347;245;23149;-84
2023/07/10 07:30:47;;;;;;;7.97;1.83;;;45.70;36.10;45.10;101008;;;;576262;245;23116;-83
2023/07/10 07:33:08;;;;;;;5.03;1.60;;;45.60;36.50;45.00;101016;;;;575780;245;23092;-81
2023/07/10 07:35:36;;;;;;;2.70;1.48;;;45.20;35.50;44.30;101005;;;;573413;245;23079;-81
2023/07/10 07:38:05;;;;;;;6.05;1.80;;;45.10;36.40;44.40;101007;;;;575997;245;24139;-82
2023/07/10 07:40:37;;;;;;;1.48;1.37;;;45.00;36.30;44.70;101007;;;;573170;245;23114;-83
2023/07/10 07:43:05;;;;;;;1.67;1.60;;;45.20;36.80;44.80;101003;;;;569953;245;23097;-83
2023/07/10 07:45:30;;;;;;;2.00;1.85;;;45.20;36.50;44.90;101002;;;;575237;245;23121;-81
2023/07/10 07:47:58;;;;;;;3.47;1.70;;;45.40;36.50;44.30;101002;;;;572957;245;23072;-82
2023/07/10 07:50:26;;;;;;;4.12;2.00;;;45.00;37.10;44.40;101007;;;;572983;245;23067;-83
2023/07/10 07:52:54;;;;;;;7.07;1.35;;;44.90;36.90;43.50;100995;;;;572913;245;23103;-81
2023/07/10 07:55:24;;;;;;;3.55;1.62;;;44.40;36.40;43.70;100995;;;;573354;245;23101;-82
2023/07/10 07:57:52;;;;;;;1.30;1.30;;;44.20;36.30;44.40;101008;;;;575829;245;24132;-82
2023/07/10 08:00:20;;;;;;;1.70;1.60;;;44.70;35.40;44.10;101002;;;;572909;245;23055;-82
2023/07/10 08:02:49;;;;;;;3.78;1.50;;;44.70;36.00;44.00;101002;;;;575700;245;23062;-82
2023/07/10 08:05:16;;;;;;;1.58;1.52;;;44.60;35.90;44.90;101004;;;;584508;245;24151;-81
2023/07/10 08:07:44;;;;;;;2.85;1.33;;;45.10;35.20;45.20;101001;;;;572927;241;23105;-81
2023/07/10 08:10:11;;;;;;;1.75;1.50;;;45.60;34.20;45.30;101000;;;;572979;245;23102;-85
2023/07/10 08:12:39;;;;;;;3.10;1.35;;;45.80;34.60;45.80;100997;;;;572878;245;23109;-82
2023/07/10 08:15:11;;;;;;;4.00;1.50;;;46.00;35.30;45.70;100997;;;;572903;245;23063;-82
2023/07/10 08:17:40;;;;;;;3.58;1.40;;;46.10;33.70;45.50;100995;;;;574927;245;23071;-83
2023/07/10 08:20:07;;;;;;;4.18;1.50;;;46.20;33.60;45.60;100994;;;;574699;245;23126;-86
2023/07/10 08:22:31;;;;;;;3.25;1.85;;;46.20;33.90;45.60;100995;;;;584040;245;23114;-83
2023/07/10 08:25:01;;;;;;;2.75;1.50;;;46.40;34.10;46.00;101005;;;;572510;245;23092;-82
2023/07/10 08:27:27;;;;;;;1.12;1.10;;;46.50;33.90;45.90;100999;;;;575577;245;23071;-83
2023/07/10 08:29:55;;;;;;;6.57;1.73;;;46.60;33.80;45.60;100997;;;;572564;245;23104;-83
2023/07/10 08:32:23;;;;;;;11.75;1.70;;;46.40;34.30;46.10;100998;;;;573901;245;23080;-84
2023/07/10 08:34:51;;;;;;;3.50;1.83;;;46.70;33.70;46.60;100999;;;;573531;245;23062;-85
2023/07/10 08:37:19;;;;;;;5.28;1.90;;;47.10;33.70;47.30;101007;;;;573161;245;23067;-82
2023/07/10 08:39:47;;;;;;;11.32;2.33;;;47.50;33.30;47.80;101002;;;;573038;245;24113;-83
2023/07/10 08:42:18;;;;;;;11.52;2.17;;;48.00;33.00;48.20;101006;;;;573003;245;23099;-83
2023/07/10 08:44:46;;;;;;;5.87;1.52;;;48.50;32.00;48.20;101001;;;;575676;240;23090;-80
2023/07/10 08:47:24;;;;;;;2.78;1.25;;;49.00;31.50;48.50;101007;;;;576035;245;23062;-81
2023/07/10 08:49:54;;;;;;;3.80;1.50;;;49.00;31.40;48.30;101004;;;;575362;245;23079;-83
2023/07/10 08:52:46;;;;;;;2.17;1.48;;;49.10;31.10;48.20;101007;;;;575235;245;23092;-83
2023/07/10 08:55:14;;;;;;;6.93;2.03;;;48.90;31.90;48.60;101002;;;;585089;245;23125;-81
2023/07/10 08:57:45;;;;;;;3.87;1.55;;;49.10;31.60;48.80;101000;;;;576721;245;23077;-82
2023/07/10 09:00:13;;;;;;;3.25;1.67;;;49.30;31.50;48.90;100995;;;;575310;245;23126;-81
2023/07/10 09:02:43;;;;;;;2.58;1.37;;;49.50;31.40;48.70;100985;;;;575897;245;23138;-82
2023/07/10 09:05:17;;;;;;;3.72;1.50;;;49.50;30.90;48.80;100987;;;;568699;250;23165;-82
2023/07/10 09:07:45;;;;;;;4.43;1.70;;;49.60;31.00;48.90;100981;;;;570623;245;35174;-81
2023/07/10 09:10:20;;;;;;;3.90;1.30;;;49.80;30.60;49.10;100979;;;;584959;240;23078;-82
2023/07/10 09:12:48;;;;;;;4.07;1.83;;;49.80;30.60;49.10;100970;;;;576268;245;23069;-80
2023/07/10 09:15:23;;;;;;;1.80;1.33;;;49.90;30.30;48.70;100977;;;;586792;245;24141;-82
2023/07/10 09:17:55;;;;;;;3.85;1.35;;;49.80;29.80;48.40;100974;;;;577660;245;24122;-85
2023/07/10 09:20:24;;;;;;;1.73;1.60;;;49.50;29.90;48.20;100961;;;;574425;248;23114;-85
2023/07/10 09:22:54;;;;;;;2.17;1.40;;;49.40;29.80;47.90;100964;;;;555877;255;23142;-85
2023/07/10 09:25:22;;;;;;;13.20;2.00;;;49.20;29.80;47.50;100970;;;;580997;245;23124;-82
2023/07/10 09:27:50;;;;;;;2.10;1.48;;;48.90;30.10;47.00;100974;;;;572968;245;23074;-81
2023/07/10 09:30:26;;;;;;;5.47;1.60;;;48.60;31.40;46.80;100973;;;;564878;245;35124;-81
2023/07/10 09:33:00;;;;;;;3.15;1.62;;;48.40;30.10;46.40;100963;;;;573697;245;23062;-82
2023/07/10 09:35:31;;;;;;;5.28;1.67;;;48.10;30.20;46.20;100967;;;;575299;245;23075;-81
2023/07/10 09:37:56;;;;;;;1.55;1.35;;;47.90;30.40;46.20;100953;;;;561903;250;23142;-82
2023/07/10 09:40:38;;;;;;;5.85;1.55;;;47.80;30.60;46.00;100960;;;;575614;244;23063;-83
2023/07/10 09:43:06;;;;;;;1.40;1.40;;;47.70;30.50;45.90;100958;;;;576752;245;23144;-81
2023/07/10 09:45:35;;;;;;;5.22;1.60;;;47.60;30.90;46.10;100961;;;;570724;245;35107;-85
2023/07/10 09:48:03;;;;;;;1.30;1.30;;;47.50;30.80;45.90;100966;;;;576187;245;24186;-82
2023/07/10 09:50:31;;;;;;;5.28;1.30;;;47.40;30.80;46.40;100964;;;;575339;245;23128;-85
2023/07/10 09:52:59;;;;;;;2.40;1.40;;;47.80;30.70;46.50;100961;;;;587106;239;23105;-82
2023/07/10 09:55:27;;;;;;;1.27;1.17;;;48.00;30.70;46.60;100952;;;;563876;247;23094;-82
2023/07/10 09:57:57;;;;;;;2.10;1.35;;;48.10;30.10;45.70;100951;;;;575595;245;23126;-83
2023/07/10 10:00:25;;;;;;;3.62;1.92;;;47.50;30.70;45.70;100951;;;;555834;255;23181;-84
2023/07/10 10:03:02;;;;;;;3.58;1.90;;;47.30;31.10;45.60;100954;;;;584155;240;23074;-85
2023/07/10 10:05:30;;;;;;;1.77;1.10;;;47.30;31.00;45.60;100944;;;;574970;245;23079;-81
2023/07/10 10:08:05;;;;;;;4.60;1.42;;;47.30;30.70;44.80;100948;;;;577538;245;23085;-81
2023/07/10 10:10:32;;;;;;;2.45;1.25;;;47.00;31.10;44.90;100937;;;;576432;245;23110;-81
2023/07/10 10:13:24;;;;;;;2.83;1.02;;;46.90;30.80;45.20;100940;;;;576899;245;23130;-84
2023/07/10 10:16:05;;;;;;;3.53;1.98;;;47.00;30.70;44.50;100941;;;;577807;245;23132;-88
2023/07/10 10:18:46;;;;;;;1.62;1.52;;;46.40;31.00;44.20;100937;;;;576834;245;23146;-85
2023/07/10 10:21:15;;;;;;;1.33;1.23;;;45.70;32.00;44.20;100935;;;;585954;245;23141;-86
2023/07/10 10:23:44;;;;;;;1.70;1.30;;;45.70;32.00;43.80;100935;;;;577192;244;23079;-83
2023/07/10 10:26:55;;;;;;;1.50;1.40;;;45.30;32.40;43.40;100939;;;;576861;245;23096;-81
2023/07/10 10:29:59;;;;;;;2.25;1.27;;;45.00;33.10;42.50;100941;;;;577282;245;23096;-81
2023/07/10 10:32:33;;;;;;;3.62;1.35;;;44.20;33.60;41.60;100936;;;;576959;245;23094;-78
2023/07/10 10:35:04;;;;;;;3.90;1.40;;;42.60;34.80;40.50;100933;;;;554253;254;23140;-82
2023/07/10 10:37:47;;;;;;;6.25;1.62;;;42.60;34.80;39.50;100934;;;;562247;251;23106;-82
2023/07/10 10:40:39;;;;;;;1.35;1.30;;;41.40;36.60;38.00;100931;;;;562651;251;23185;-78
2023/07/10 10:43:31;;;;;;;6.25;2.10;;;39.90;37.00;36.60;100937;;;;561431;251;23148;-78
2023/07/10 10:46:30;;;;;;;3.25;1.40;;;36.80;39.90;35.40;100920;;;;561162;251;23121;-82
2023/07/10 10:49:41;;;;;;;4.32;1.50;;;36.80;39.90;34.10;100916;;;;553636;255;24202;-84
2023/07/10 10:52:46;;;;;;;4.25;1.40;;;35.40;42.10;33.20;100918;;;;544397;251;23161;-80
2023/07/10 10:55:31;;;;;;;4.60;1.83;;;34.20;43.50;32.50;100909;;;;555203;254;23112;-82
2023/07/10 10:58:06;;;;;;;2.25;1.80;;;33.20;45.10;32.00;100909;;;;573076;245;23106;-81
2023/07/10 11:00:51;;;;;;;1.23;1.10;;;32.60;46.30;31.40;100897;;;;576447;245;23068;-79
2023/07/10 11:03:31;;;;;;;5.85;1.05;;;32.10;47.00;30.80;100898;;;;566925;245;24124;-82
2023/07/10 11:05:58;;;;;;;2.78;1.15;;;31.60;48.30;30.30;100891;;;;575082;245;23086;-84
2023/07/10 11:08:38;;;;;;;2.25;1.15;;;31.10;48.40;29.70;100885;;;;574219;244;23117;-80
2023/07/10 11:11:06;;;;;;;1.00;1.00;;;30.50;49.90;29.30;100881;;;;576433;246;24071;-82
2023/07/10 11:13:34;;;;;;;3.03;1.20;;;30.00;50.30;29.00;100879;;;;551967;254;24179;-81
2023/07/10 11:16:02;;;;;;;5.60;1.80;;;29.60;51.80;28.80;100872;;;;563834;252;23117;-82
2023/07/10 11:18:29;;;;;;;9.27;1.92;;;29.30;52.40;28.70;100878;;;;572150;247;24084;-83
2023/07/10 11:21:01;;;;;;;15.73;2.20;;;29.20;52.80;28.70;100877;;;;567068;247;35202;-82